sensor_id;sensor_type;location;lat;lon;timestamp;temperature;humidity
44121;DHT22;29783;52.504;13.478;2023-07-29T00:16:47;17.30;96.90
44121;DHT22;29783;52.504;13.478;2023-07-29T00:19:13;17.40;97.20
44121;DHT22;29783;52.504;13.478;2023-07-29T00:21:38;17.40;97.20
44121;DHT22;29783;52.504;13.478;2023-07-29T00:24:04;17.30;97.00
44121;DHT22;29783;52.504;13.478;2023-07-29T00:26:30;17.30;97.10
44121;DHT22;29783;52.504;13.478;2023-07-29T00:28:56;17.30;97.00
44121;DHT22;29783;52.504;13.478;2023-07-29T00:31:23;17.20;97.10
44121;DHT22;29783;52.504;13.478;2023-07-29T00:33:48;17.20;97.10
44121;DHT22;29783;52.504;13.478;2023-07-29T00:36:15;17.20;97.10
44121;DHT22;29783;52.504;13.478;2023-07-29T00:38:41;17.20;97.40
44121;DHT22;29783;52.504;13.478;2023-07-29T00:41:08;17.40;97.60
44121;DHT22;29783;52.504;13.478;2023-07-29T00:43:39;17.40;97.60
44121;DHT22;29783;52.504;13.478;2023-07-29T00:46:08;17.30;97.50
44121;DHT22;29783;52.504;13.478;2023-07-29T01:04:08;17.10;97.50
44121;DHT22;29783;52.504;13.478;2023-07-29T01:09:36;17.00;97.40
44121;DHT22;29783;52.504;13.478;2023-07-29T01:12:42;17.00;97.50
44121;DHT22;29783;52.504;13.478;2023-07-29T01:17:46;16.80;97.50
44121;DHT22;29783;52.504;13.478;2023-07-29T01:20:15;16.80;97.50
44121;DHT22;29783;52.504;13.478;2023-07-29T01:22:41;16.70;97.50
44121;DHT22;29783;52.504;13.478;2023-07-29T01:25:07;16.70;97.60
44121;DHT22;29783;52.504;13.478;2023-07-29T01:27:33;16.70;97.60
44121;DHT22;29783;52.504;13.478;2023-07-29T01:29:59;16.70;97.60
44121;DHT22;29783;52.504;13.478;2023-07-29T01:35:05;16.60;97.60
44121;DHT22;29783;52.504;13.478;2023-07-29T01:37:34;16.60;97.60
44121;DHT22;29783;52.504;13.478;2023-07-29T01:40:01;16.60;97.60
44121;DHT22;29783;52.504;13.478;2023-07-29T01:42:27;16.50;97.50
44121;DHT22;29783;52.504;13.478;2023-07-29T01:44:55;16.50;97.60
44121;DHT22;29783;52.504;13.478;2023-07-29T01:47:21;16.50;97.60
44121;DHT22;29783;52.504;13.478;2023-07-29T01:49:48;16.50;97.60
44121;DHT22;29783;52.504;13.478;2023-07-29T01:52:13;16.40;97.60
44121;DHT22;29783;52.504;13.478;2023-07-29T01:54:39;16.40;97.60
44121;DHT22;29783;52.504;13.478;2023-07-29T01:57:05;16.40;97.70
44121;DHT22;29783;52.504;13.478;2023-07-29T01:59:30;16.50;97.80
44121;DHT22;29783;52.504;13.478;2023-07-29T02:01:56;16.50;97.70
44121;DHT22;29783;52.504;13.478;2023-07-29T02:04:22;16.50;97.70
44121;DHT22;29783;52.504;13.478;2023-07-29T02:06:47;16.40;97.70
44121;DHT22;29783;52.504;13.478;2023-07-29T02:09:13;16.40;97.70
44121;DHT22;29783;52.504;13.478;2023-07-29T02:11:39;16.40;97.70
44121;DHT22;29783;52.504;13.478;2023-07-29T02:14:04;16.30;97.70
44121;DHT22;29783;52.504;13.478;2023-07-29T02:16:30;16.30;97.70
44121;DHT22;29783;52.504;13.478;2023-07-29T02:18:59;16.30;97.70
44121;DHT22;29783;52.504;13.478;2023-07-29T02:21:25;16.30;97.70
44121;DHT22;29783;52.504;13.478;2023-07-29T02:23:51;16.20;97.70
44121;DHT22;29783;52.504;13.478;2023-07-29T02:26:17;16.30;97.80
44121;DHT22;29783;52.504;13.478;2023-07-29T02:28:42;16.40;97.90
44121;DHT22;29783;52.504;13.478;2023-07-29T02:33:42;16.40;97.80
44121;DHT22;29783;52.504;13.478;2023-07-29T02:36:08;16.30;97.80
44121;DHT22;29783;52.504;13.478;2023-07-29T02:38:33;16.30;97.80
44121;DHT22;29783;52.504;13.478;2023-07-29T02:41:00;16.30;97.80
44121;DHT22;29783;52.504;13.478;2023-07-29T02:43:25;16.30;97.80
44121;DHT22;29783;52.504;13.478;2023-07-29T02:45:51;16.30;97.80
44121;DHT22;29783;52.504;13.478;2023-07-29T02:48:16;16.20;97.80
44121;DHT22;29783;52.504;13.478;2023-07-29T02:50:42;16.20;97.80
44121;DHT22;29783;52.504;13.478;2023-07-29T02:53:08;16.20;98.00
44121;DHT22;29783;52.504;13.478;2023-07-29T02:55:34;16.20;98.00
44121;DHT22;29783;52.504;13.478;2023-07-29T02:58:00;16.20;97.90
44121;DHT22;29783;52.504;13.478;2023-07-29T03:00:25;16.20;97.90
44121;DHT22;29783;52.504;13.478;2023-07-29T03:02:51;16.10;97.90
44121;DHT22;29783;52.504;13.478;2023-07-29T03:05:17;16.20;98.00
44121;DHT22;29783;52.504;13.478;2023-07-29T03:07:43;16.10;97.90
44121;DHT22;29783;52.504;13.478;2023-07-29T03:10:10;16.10;97.90
44121;DHT22;29783;52.504;13.478;2023-07-29T03:12:36;16.10;97.90
44121;DHT22;29783;52.504;13.478;2023-07-29T03:15:02;16.10;97.90
44121;DHT22;29783;52.504;13.478;2023-07-29T03:17:28;16.00;97.90
44121;DHT22;29783;52.504;13.478;2023-07-29T03:19:55;16.00;97.90
44121;DHT22;29783;52.504;13.478;2023-07-29T03:22:21;16.00;97.90
44121;DHT22;29783;52.504;13.478;2023-07-29T03:24:47;16.00;97.90
44121;DHT22;29783;52.504;13.478;2023-07-29T03:27:14;16.00;97.90
44121;DHT22;29783;52.504;13.478;2023-07-29T03:29:41;16.00;98.00
44121;DHT22;29783;52.504;13.478;2023-07-29T03:32:07;16.00;98.00
44121;DHT22;29783;52.504;13.478;2023-07-29T03:34:34;16.00;98.00
44121;DHT22;29783;52.504;13.478;2023-07-29T03:37:01;16.00;98.00
44121;DHT22;29783;52.504;13.478;2023-07-29T03:39:27;16.00;98.00
44121;DHT22;29783;52.504;13.478;2023-07-29T03:41:52;16.00;98.00
44121;DHT22;29783;52.504;13.478;2023-07-29T03:44:18;16.00;98.00
44121;DHT22;29783;52.504;13.478;2023-07-29T03:46:47;15.90;98.00
44121;DHT22;29783;52.504;13.478;2023-07-29T04:27:59;16.80;98.40
44121;DHT22;29783;52.504;13.478;2023-07-29T04:30:25;16.90;98.50
44121;DHT22;29783;52.504;13.478;2023-07-29T04:32:50;16.90;98.50
44121;DHT22;29783;52.504;13.478;2023-07-29T04:35:17;17.00;98.50
44121;DHT22;29783;52.504;13.478;2023-07-29T04:37:43;17.20;98.60
44121;DHT22;29783;52.504;13.478;2023-07-29T04:40:10;17.20;98.50
44121;DHT22;29783;52.504;13.478;2023-07-29T04:42:37;17.30;98.50
44121;DHT22;29783;52.504;13.478;2023-07-29T04:45:06;17.40;98.50
44121;DHT22;29783;52.504;13.478;2023-07-29T05:17:17;17.60;98.00
44121;DHT22;29783;52.504;13.478;2023-07-29T05:19:47;17.60;97.90
44121;DHT22;29783;52.504;13.478;2023-07-29T05:22:13;17.60;97.90
44121;DHT22;29783;52.504;13.478;2023-07-29T05:24:39;17.70;97.90
44121;DHT22;29783;52.504;13.478;2023-07-29T05:27:05;17.70;97.80
44121;DHT22;29783;52.504;13.478;2023-07-29T05:29:31;17.90;97.80
44121;DHT22;29783;52.504;13.478;2023-07-29T05:31:56;18.00;97.60
44121;DHT22;29783;52.504;13.478;2023-07-29T05:34:22;18.30;97.80
44121;DHT22;29783;52.504;13.478;2023-07-29T05:36:48;18.40;97.00
44121;DHT22;29783;52.504;13.478;2023-07-29T05:39:13;18.60;96.60
44121;DHT22;29783;52.504;13.478;2023-07-29T05:41:39;18.70;96.40
44121;DHT22;29783;52.504;13.478;2023-07-29T05:44:05;18.70;95.20
44121;DHT22;29783;52.504;13.478;2023-07-29T05:46:32;18.70;94.20
44121;DHT22;29783;52.504;13.478;2023-07-29T06:11:07;19.60;90.40
44121;DHT22;29783;52.504;13.478;2023-07-29T06:13:33;19.70;90.20
44121;DHT22;29783;52.504;13.478;2023-07-29T06:15:58;19.80;89.70
44121;DHT22;29783;52.504;13.478;2023-07-29T06:18:24;19.80;89.20
44121;DHT22;29783;52.504;13.478;2023-07-29T06:20:50;19.90;89.00
44121;DHT22;29783;52.504;13.478;2023-07-29T06:23:16;20.00;88.90
44121;DHT22;29783;52.504;13.478;2023-07-29T06:25:42;20.00;88.40
44121;DHT22;29783;52.504;13.478;2023-07-29T06:28:09;19.90;88.70
44121;DHT22;29783;52.504;13.478;2023-07-29T06:30:35;19.80;89.00
44121;DHT22;29783;52.504;13.478;2023-07-29T06:33:01;19.90;89.00
44121;DHT22;29783;52.504;13.478;2023-07-29T06:35:28;20.00;88.80
44121;DHT22;29783;52.504;13.478;2023-07-29T06:37:54;20.20;88.10
44121;DHT22;29783;52.504;13.478;2023-07-29T06:40:20;20.30;87.60
44121;DHT22;29783;52.504;13.478;2023-07-29T06:42:46;20.30;87.20
44121;DHT22;29783;52.504;13.478;2023-07-29T06:45:12;20.40;87.20
44121;DHT22;29783;52.504;13.478;2023-07-29T06:47:37;20.40;87.30
44121;DHT22;29783;52.504;13.478;2023-07-29T06:50:03;20.50;87.40
44121;DHT22;29783;52.504;13.478;2023-07-29T06:52:31;20.70;86.80
44121;DHT22;29783;52.504;13.478;2023-07-29T06:54:57;20.80;86.70
44121;DHT22;29783;52.504;13.478;2023-07-29T06:57:23;21.10;85.70
44121;DHT22;29783;52.504;13.478;2023-07-29T06:59:49;21.50;84.50
44121;DHT22;29783;52.504;13.478;2023-07-29T07:02:14;21.70;83.30
44121;DHT22;29783;52.504;13.478;2023-07-29T07:04:40;21.90;82.60
44121;DHT22;29783;52.504;13.478;2023-07-29T07:07:06;21.90;82.60
44121;DHT22;29783;52.504;13.478;2023-07-29T07:09:31;22.10;81.70
44121;DHT22;29783;52.504;13.478;2023-07-29T07:11:57;22.20;81.00
44121;DHT22;29783;52.504;13.478;2023-07-29T07:14:23;22.20;80.70
44121;DHT22;29783;52.504;13.478;2023-07-29T07:16:48;22.40;80.10
44121;DHT22;29783;52.504;13.478;2023-07-29T07:19:15;22.60;79.60
44121;DHT22;29783;52.504;13.478;2023-07-29T07:21:42;22.50;79.50
44121;DHT22;29783;52.504;13.478;2023-07-29T07:24:07;22.50;79.70
44121;DHT22;29783;52.504;13.478;2023-07-29T07:26:33;22.70;79.30
44121;DHT22;29783;52.504;13.478;2023-07-29T07:28:59;22.70;78.60
44121;DHT22;29783;52.504;13.478;2023-07-29T07:31:24;22.80;78.70
44121;DHT22;29783;52.504;13.478;2023-07-29T07:33:50;22.80;79.20
44121;DHT22;29783;52.504;13.478;2023-07-29T07:36:15;23.00;78.90
44121;DHT22;29783;52.504;13.478;2023-07-29T07:38:41;23.10;78.20
44121;DHT22;29783;52.504;13.478;2023-07-29T07:41:07;23.20;77.10
44121;DHT22;29783;52.504;13.478;2023-07-29T07:43:32;23.10;77.80
44121;DHT22;29783;52.504;13.478;2023-07-29T07:45:59;23.00;77.90
44121;DHT22;29783;52.504;13.478;2023-07-29T07:48:26;23.00;77.70
44121;DHT22;29783;52.504;13.478;2023-07-29T07:50:52;23.10;77.20
44121;DHT22;29783;52.504;13.478;2023-07-29T07:53:17;23.30;76.60
44121;DHT22;29783;52.504;13.478;2023-07-29T07:55:43;23.60;75.90
44121;DHT22;29783;52.504;13.478;2023-07-29T07:58:09;23.50;76.10
44121;DHT22;29783;52.504;13.478;2023-07-29T08:00:34;23.70;75.70
44121;DHT22;29783;52.504;13.478;2023-07-29T08:03:00;23.90;74.20
44121;DHT22;29783;52.504;13.478;2023-07-29T08:05:26;24.10;73.40
44121;DHT22;29783;52.504;13.478;2023-07-29T08:07:51;24.00;73.80
44121;DHT22;29783;52.504;13.478;2023-07-29T08:10:17;24.10;74.40
44121;DHT22;29783;52.504;13.478;2023-07-29T08:12:42;24.50;72.60
44121;DHT22;29783;52.504;13.478;2023-07-29T08:15:08;24.60;71.30
44121;DHT22;29783;52.504;13.478;2023-07-29T08:17:34;24.60;71.40
44121;DHT22;29783;52.504;13.478;2023-07-29T08:20:00;24.30;72.30
44121;DHT22;29783;52.504;13.478;2023-07-29T08:22:26;24.30;72.80
44121;DHT22;29783;52.504;13.478;2023-07-29T08:24:52;24.20;71.30
44121;DHT22;29783;52.504;13.478;2023-07-29T08:27:18;24.40;71.90
44121;DHT22;29783;52.504;13.478;2023-07-29T08:29:43;24.50;71.80
44121;DHT22;29783;52.504;13.478;2023-07-29T08:32:09;24.40;71.70
44121;DHT22;29783;52.504;13.478;2023-07-29T08:34:34;24.80;70.30
44121;DHT22;29783;52.504;13.478;2023-07-29T08:37:01;25.10;69.30
44121;DHT22;29783;52.504;13.478;2023-07-29T08:39:27;25.20;68.50
44121;DHT22;29783;52.504;13.478;2023-07-29T08:42:08;25.20;68.50
44121;DHT22;29783;52.504;13.478;2023-07-29T08:44:40;25.40;68.10
44121;DHT22;29783;52.504;13.478;2023-07-29T08:47:08;25.30;68.10
44121;DHT22;29783;52.504;13.478;2023-07-29T08:49:34;25.50;67.20
44121;DHT22;29783;52.504;13.478;2023-07-29T08:52:01;25.70;66.70
44121;DHT22;29783;52.504;13.478;2023-07-29T08:54:27;25.50;66.30
44121;DHT22;29783;52.504;13.478;2023-07-29T08:56:52;25.40;67.40
44121;DHT22;29783;52.504;13.478;2023-07-29T08:59:19;25.40;67.30
44121;DHT22;29783;52.504;13.478;2023-07-29T09:01:45;25.20;67.90
44121;DHT22;29783;52.504;13.478;2023-07-29T09:04:12;25.20;68.80
44121;DHT22;29783;52.504;13.478;2023-07-29T09:06:39;25.40;68.20
44121;DHT22;29783;52.504;13.478;2023-07-29T09:09:05;25.80;66.20
44121;DHT22;29783;52.504;13.478;2023-07-29T09:11:32;26.10;64.90
44121;DHT22;29783;52.504;13.478;2023-07-29T09:13:58;26.00;66.80
44121;DHT22;29783;52.504;13.478;2023-07-29T09:16:24;26.10;66.40
44121;DHT22;29783;52.504;13.478;2023-07-29T09:18:51;26.30;64.50
44121;DHT22;29783;52.504;13.478;2023-07-29T09:21:24;26.10;65.50
44121;DHT22;29783;52.504;13.478;2023-07-29T09:23:55;26.60;64.20
44121;DHT22;29783;52.504;13.478;2023-07-29T09:26:25;26.30;65.60
44121;DHT22;29783;52.504;13.478;2023-07-29T09:28:55;26.20;64.60
44121;DHT22;29783;52.504;13.478;2023-07-29T09:31:23;25.90;65.50
44121;DHT22;29783;52.504;13.478;2023-07-29T09:33:49;26.10;65.10
44121;DHT22;29783;52.504;13.478;2023-07-29T09:36:15;26.20;64.70
44121;DHT22;29783;52.504;13.478;2023-07-29T09:38:41;26.00;65.70
44121;DHT22;29783;52.504;13.478;2023-07-29T09:41:06;25.90;65.30
44121;DHT22;29783;52.504;13.478;2023-07-29T09:43:33;25.90;65.80
44121;DHT22;29783;52.504;13.478;2023-07-29T09:46:04;26.10;65.50
44121;DHT22;29783;52.504;13.478;2023-07-29T09:48:34;26.60;64.00
44121;DHT22;29783;52.504;13.478;2023-07-29T09:51:13;26.80;64.60
44121;DHT22;29783;52.504;13.478;2023-07-29T09:53:50;27.00;62.30
44121;DHT22;29783;52.504;13.478;2023-07-29T09:56:16;26.60;63.50
44121;DHT22;29783;52.504;13.478;2023-07-29T09:58:45;26.30;64.90
44121;DHT22;29783;52.504;13.478;2023-07-29T10:01:11;26.40;64.90
44121;DHT22;29783;52.504;13.478;2023-07-29T10:03:37;26.30;64.80
44121;DHT22;29783;52.504;13.478;2023-07-29T10:06:03;26.30;64.70
44121;DHT22;29783;52.504;13.478;2023-07-29T10:08:30;26.60;64.00
44121;DHT22;29783;52.504;13.478;2023-07-29T10:11:01;26.90;63.50
44121;DHT22;29783;52.504;13.478;2023-07-29T10:13:28;26.80;63.30
44121;DHT22;29783;52.504;13.478;2023-07-29T10:15:54;26.70;63.30
44121;DHT22;29783;52.504;13.478;2023-07-29T10:18:22;27.00;62.90
44121;DHT22;29783;52.504;13.478;2023-07-29T10:20:51;27.20;62.70
44121;DHT22;29783;52.504;13.478;2023-07-29T10:23:18;27.50;62.20
44121;DHT22;29783;52.504;13.478;2023-07-29T10:25:49;27.10;62.10
44121;DHT22;29783;52.504;13.478;2023-07-29T10:28:20;27.20;61.80
44121;DHT22;29783;52.504;13.478;2023-07-29T10:30:51;27.20;61.40
44121;DHT22;29783;52.504;13.478;2023-07-29T10:33:17;27.10;62.20
44121;DHT22;29783;52.504;13.478;2023-07-29T10:35:43;27.10;61.70
44121;DHT22;29783;52.504;13.478;2023-07-29T10:38:09;26.80;62.40
44121;DHT22;29783;52.504;13.478;2023-07-29T10:40:52;26.80;62.60
44121;DHT22;29783;52.504;13.478;2023-07-29T10:43:36;26.80;62.50
44121;DHT22;29783;52.504;13.478;2023-07-29T10:46:20;26.90;62.00
44121;DHT22;29783;52.504;13.478;2023-07-29T10:48:56;27.00;62.50
44121;DHT22;29783;52.504;13.478;2023-07-29T10:51:26;27.00;62.80
44121;DHT22;29783;52.504;13.478;2023-07-29T10:54:13;26.60;62.70
44121;DHT22;29783;52.504;13.478;2023-07-29T10:56:59;26.80;61.90
44121;DHT22;29783;52.504;13.478;2023-07-29T10:59:35;26.90;62.00
44121;DHT22;29783;52.504;13.478;2023-07-29T11:02:02;27.00;60.90
44121;DHT22;29783;52.504;13.478;2023-07-29T11:04:46;26.90;60.10
44121;DHT22;29783;52.504;13.478;2023-07-29T11:10:01;26.30;59.70
44121;DHT22;29783;52.504;13.478;2023-07-29T11:17:50;25.70;61.40
44121;DHT22;29783;52.504;13.478;2023-07-29T11:20:17;25.50;62.60
44121;DHT22;29783;52.504;13.478;2023-07-29T11:22:44;25.30;63.60
44121;DHT22;29783;52.504;13.478;2023-07-29T11:25:13;25.10;63.20
44121;DHT22;29783;52.504;13.478;2023-07-29T11:27:40;24.00;77.80
44121;DHT22;29783;52.504;13.478;2023-07-29T11:30:15;21.20;87.90
44121;DHT22;29783;52.504;13.478;2023-07-29T11:32:43;20.10;91.90
44121;DHT22;29783;52.504;13.478;2023-07-29T11:35:11;19.70;93.90
44121;DHT22;29783;52.504;13.478;2023-07-29T11:37:39;19.70;94.70
44121;DHT22;29783;52.504;13.478;2023-07-29T11:40:05;19.60;95.20
44121;DHT22;29783;52.504;13.478;2023-07-29T11:42:32;19.70;95.80
44121;DHT22;29783;52.504;13.478;2023-07-29T11:45:02;19.70;95.00
44121;DHT22;29783;52.504;13.478;2023-07-29T11:47:29;19.70;95.60
44121;DHT22;29783;52.504;13.478;2023-07-29T11:49:58;19.70;95.70
44121;DHT22;29783;52.504;13.478;2023-07-29T11:52:25;19.70;95.90
44121;DHT22;29783;52.504;13.478;2023-07-29T11:54:52;19.80;96.20
44121;DHT22;29783;52.504;13.478;2023-07-29T11:57:18;19.80;96.10
44121;DHT22;29783;52.504;13.478;2023-07-29T11:59:45;19.70;96.00
44121;DHT22;29783;52.504;13.478;2023-07-29T12:02:15;19.80;95.90
44121;DHT22;29783;52.504;13.478;2023-07-29T12:04:41;20.00;95.80
44121;DHT22;29783;52.504;13.478;2023-07-29T12:07:08;19.80;94.70
44121;DHT22;29783;52.504;13.478;2023-07-29T12:09:34;20.00;94.90
44121;DHT22;29783;52.504;13.478;2023-07-29T12:12:04;20.20;94.70
44121;DHT22;29783;52.504;13.478;2023-07-29T12:14:30;20.30;94.90
44121;DHT22;29783;52.504;13.478;2023-07-29T12:17:03;20.50;95.00
44121;DHT22;29783;52.504;13.478;2023-07-29T12:19:37;20.70;94.90
44121;DHT22;29783;52.504;13.478;2023-07-29T12:22:05;20.80;94.60
44121;DHT22;29783;52.504;13.478;2023-07-29T12:24:32;20.80;94.20
44121;DHT22;29783;52.504;13.478;2023-07-29T12:26:58;20.80;94.30
44121;DHT22;29783;52.504;13.478;2023-07-29T12:29:24;20.90;94.70
44121;DHT22;29783;52.504;13.478;2023-07-29T12:32:01;20.80;94.20
44121;DHT22;29783;52.504;13.478;2023-07-29T12:34:28;21.00;94.90
44121;DHT22;29783;52.504;13.478;2023-07-29T12:36:58;20.90;93.90
44121;DHT22;29783;52.504;13.478;2023-07-29T12:39:28;21.10;93.90
44121;DHT22;29783;52.504;13.478;2023-07-29T12:41:56;21.30;94.10
44121;DHT22;29783;52.504;13.478;2023-07-29T12:44:23;21.40;93.30
44121;DHT22;29783;52.504;13.478;2023-07-29T12:46:49;21.70;92.70
44121;DHT22;29783;52.504;13.478;2023-07-29T12:49:15;21.90;92.00
44121;DHT22;29783;52.504;13.478;2023-07-29T12:51:41;22.60;92.80
44121;DHT22;29783;52.504;13.478;2023-07-29T12:54:06;23.10;91.90
44121;DHT22;29783;52.504;13.478;2023-07-29T12:56:33;23.90;88.60
44121;DHT22;29783;52.504;13.478;2023-07-29T12:58:59;24.30;84.00
44121;DHT22;29783;52.504;13.478;2023-07-29T13:01:25;25.60;82.70
44121;DHT22;29783;52.504;13.478;2023-07-29T13:03:51;26.90;79.30
44121;DHT22;29783;52.504;13.478;2023-07-29T13:06:17;27.70;72.40
44121;DHT22;29783;52.504;13.478;2023-07-29T13:08:43;27.70;72.60
44121;DHT22;29783;52.504;13.478;2023-07-29T13:11:09;28.00;73.30
44121;DHT22;29783;52.504;13.478;2023-07-29T13:13:36;27.80;72.40
44121;DHT22;29783;52.504;13.478;2023-07-29T13:16:02;27.10;69.00
44121;DHT22;29783;52.504;13.478;2023-07-29T13:18:29;26.80;71.40
44121;DHT22;29783;52.504;13.478;2023-07-29T13:20:55;26.00;71.90
44121;DHT22;29783;52.504;13.478;2023-07-29T13:23:23;25.50;73.50
44121;DHT22;29783;52.504;13.478;2023-07-29T13:25:49;24.80;75.60
44121;DHT22;29783;52.504;13.478;2023-07-29T13:28:18;24.30;78.20
44121;DHT22;29783;52.504;13.478;2023-07-29T13:30:44;24.00;78.30
44121;DHT22;29783;52.504;13.478;2023-07-29T13:33:10;24.00;80.40
44121;DHT22;29783;52.504;13.478;2023-07-29T13:35:36;24.00;77.10
44121;DHT22;29783;52.504;13.478;2023-07-29T13:38:02;24.10;78.20
44121;DHT22;29783;52.504;13.478;2023-07-29T13:40:28;24.70;78.00
44121;DHT22;29783;52.504;13.478;2023-07-29T13:42:54;25.20;74.40
44121;DHT22;29783;52.504;13.478;2023-07-29T13:45:20;25.70;74.10
44121;DHT22;29783;52.504;13.478;2023-07-29T13:47:49;27.40;68.60
44121;DHT22;29783;52.504;13.478;2023-07-29T13:50:16;28.10;65.50
44121;DHT22;29783;52.504;13.478;2023-07-29T13:52:43;28.40;64.10
44121;DHT22;29783;52.504;13.478;2023-07-29T13:55:09;28.10;63.60
44121;DHT22;29783;52.504;13.478;2023-07-29T13:57:37;28.20;65.30
44121;DHT22;29783;52.504;13.478;2023-07-29T14:00:05;28.20;61.70
44121;DHT22;29783;52.504;13.478;2023-07-29T14:02:31;30.00;58.80
44121;DHT22;29783;52.504;13.478;2023-07-29T14:04:57;31.10;55.50
44121;DHT22;29783;52.504;13.478;2023-07-29T14:07:23;31.20;55.70
44121;DHT22;29783;52.504;13.478;2023-07-29T14:09:49;30.70;52.80
44121;DHT22;29783;52.504;13.478;2023-07-29T14:12:15;31.20;53.50
44121;DHT22;29783;52.504;13.478;2023-07-29T14:14:42;32.50;48.50
44121;DHT22;29783;52.504;13.478;2023-07-29T14:17:07;31.90;48.80
44121;DHT22;29783;52.504;13.478;2023-07-29T14:19:37;31.20;50.40
44121;DHT22;29783;52.504;13.478;2023-07-29T14:22:03;31.00;51.00
44121;DHT22;29783;52.504;13.478;2023-07-29T14:24:28;30.40;52.10
44121;DHT22;29783;52.504;13.478;2023-07-29T14:26:54;30.70;51.40
44121;DHT22;29783;52.504;13.478;2023-07-29T14:29:19;30.00;54.10
44121;DHT22;29783;52.504;13.478;2023-07-29T14:31:45;29.30;54.90
44121;DHT22;29783;52.504;13.478;2023-07-29T14:34:11;29.30;56.10
44121;DHT22;29783;52.504;13.478;2023-07-29T14:36:37;29.40;57.00
44121;DHT22;29783;52.504;13.478;2023-07-29T14:39:02;28.60;56.40
44121;DHT22;29783;52.504;13.478;2023-07-29T14:41:30;27.70;58.50
44121;DHT22;29783;52.504;13.478;2023-07-29T14:43:56;26.90;61.20
44121;DHT22;29783;52.504;13.478;2023-07-29T14:46:21;26.50;62.60
44121;DHT22;29783;52.504;13.478;2023-07-29T14:48:47;26.10;64.60
44121;DHT22;29783;52.504;13.478;2023-07-29T14:51:13;25.70;65.60
44121;DHT22;29783;52.504;13.478;2023-07-29T14:53:39;25.00;66.90
44121;DHT22;29783;52.504;13.478;2023-07-29T14:56:06;25.00;69.00
44121;DHT22;29783;52.504;13.478;2023-07-29T14:58:32;25.10;69.30
44121;DHT22;29783;52.504;13.478;2023-07-29T15:00:59;25.40;68.00
44121;DHT22;29783;52.504;13.478;2023-07-29T15:03:25;25.20;69.00
44121;DHT22;29783;52.504;13.478;2023-07-29T15:05:51;24.90;69.30
44121;DHT22;29783;52.504;13.478;2023-07-29T15:08:17;24.60;70.00
44121;DHT22;29783;52.504;13.478;2023-07-29T15:10:49;24.40;71.40
44121;DHT22;29783;52.504;13.478;2023-07-29T15:13:15;24.20;72.40
44121;DHT22;29783;52.504;13.478;2023-07-29T15:15:43;24.20;72.60
44121;DHT22;29783;52.504;13.478;2023-07-29T15:18:09;24.10;72.70
44121;DHT22;29783;52.504;13.478;2023-07-29T15:20:43;24.10;72.30
44121;DHT22;29783;52.504;13.478;2023-07-29T15:23:09;24.10;72.10
44121;DHT22;29783;52.504;13.478;2023-07-29T15:25:35;24.10;70.60
44121;DHT22;29783;52.504;13.478;2023-07-29T15:28:02;24.00;70.20
44121;DHT22;29783;52.504;13.478;2023-07-29T15:30:27;24.10;70.00
44121;DHT22;29783;52.504;13.478;2023-07-29T15:32:53;24.00;69.70
44121;DHT22;29783;52.504;13.478;2023-07-29T15:35:21;23.90;70.10
44121;DHT22;29783;52.504;13.478;2023-07-29T15:37:47;23.90;70.40
44121;DHT22;29783;52.504;13.478;2023-07-29T15:40:15;23.80;70.40
44121;DHT22;29783;52.504;13.478;2023-07-29T15:42:41;23.60;67.50
44121;DHT22;29783;52.504;13.478;2023-07-29T15:45:14;23.00;63.20
44121;DHT22;29783;52.504;13.478;2023-07-29T15:47:51;22.40;70.60
44121;DHT22;29783;52.504;13.478;2023-07-29T15:50:17;20.80;80.40
44121;DHT22;29783;52.504;13.478;2023-07-29T15:52:43;19.40;85.50
44121;DHT22;29783;52.504;13.478;2023-07-29T15:55:09;18.60;88.70
44121;DHT22;29783;52.504;13.478;2023-07-29T15:57:35;18.30;90.20
44121;DHT22;29783;52.504;13.478;2023-07-29T16:00:00;18.20;90.20
44121;DHT22;29783;52.504;13.478;2023-07-29T16:02:26;18.20;91.60
44121;DHT22;29783;52.504;13.478;2023-07-29T16:04:54;18.10;89.80
44121;DHT22;29783;52.504;13.478;2023-07-29T16:07:22;17.90;89.90
44121;DHT22;29783;52.504;13.478;2023-07-29T16:09:48;18.00;90.50
44121;DHT22;29783;52.504;13.478;2023-07-29T16:12:14;18.20;90.20
44121;DHT22;29783;52.504;13.478;2023-07-29T16:14:39;19.30;91.00
44121;DHT22;29783;52.504;13.478;2023-07-29T16:17:06;20.70;88.50
44121;DHT22;29783;52.504;13.478;2023-07-29T16:19:32;22.20;84.90
44121;DHT22;29783;52.504;13.478;2023-07-29T16:21:58;23.80;80.90
44121;DHT22;29783;52.504;13.478;2023-07-29T16:24:25;24.20;72.50
44121;DHT22;29783;52.504;13.478;2023-07-29T16:26:50;24.50;74.40
44121;DHT22;29783;52.504;13.478;2023-07-29T16:29:16;25.10;73.00
44121;DHT22;29783;52.504;13.478;2023-07-29T16:31:41;24.80;69.00
44121;DHT22;29783;52.504;13.478;2023-07-29T16:34:07;24.30;73.00
44121;DHT22;29783;52.504;13.478;2023-07-29T16:36:33;23.70;71.10
44121;DHT22;29783;52.504;13.478;2023-07-29T16:38:58;22.70;73.90
44121;DHT22;29783;52.504;13.478;2023-07-29T16:41:24;22.20;76.50
44121;DHT22;29783;52.504;13.478;2023-07-29T16:43:50;22.10;76.60
44121;DHT22;29783;52.504;13.478;2023-07-29T16:46:15;22.20;78.90
44121;DHT22;29783;52.504;13.478;2023-07-29T16:48:41;22.20;79.30
44121;DHT22;29783;52.504;13.478;2023-07-29T16:51:06;21.90;79.00
44121;DHT22;29783;52.504;13.478;2023-07-29T16:53:34;21.70;78.00
44121;DHT22;29783;52.504;13.478;2023-07-29T16:56:00;21.70;78.10
44121;DHT22;29783;52.504;13.478;2023-07-29T16:58:25;21.60;79.60
44121;DHT22;29783;52.504;13.478;2023-07-29T17:00:52;22.00;79.30
44121;DHT22;29783;52.504;13.478;2023-07-29T17:03:17;22.20;78.80
44121;DHT22;29783;52.504;13.478;2023-07-29T17:05:43;22.20;78.50
44121;DHT22;29783;52.504;13.478;2023-07-29T17:08:10;22.20;79.70
44121;DHT22;29783;52.504;13.478;2023-07-29T17:10:36;22.60;77.80
44121;DHT22;29783;52.504;13.478;2023-07-29T17:13:02;23.20;76.70
44121;DHT22;29783;52.504;13.478;2023-07-29T17:15:27;23.40;74.90
44121;DHT22;29783;52.504;13.478;2023-07-29T17:17:53;23.70;74.60
44121;DHT22;29783;52.504;13.478;2023-07-29T17:20:21;24.00;72.50
44121;DHT22;29783;52.504;13.478;2023-07-29T17:22:47;24.20;70.00
44121;DHT22;29783;52.504;13.478;2023-07-29T17:25:12;25.20;68.30
44121;DHT22;29783;52.504;13.478;2023-07-29T17:27:39;26.30;65.00
44121;DHT22;29783;52.504;13.478;2023-07-29T17:30:05;26.00;64.90
44121;DHT22;29783;52.504;13.478;2023-07-29T17:32:31;25.60;66.20
44121;DHT22;29783;52.504;13.478;2023-07-29T17:34:57;24.70;69.30